sensor_id;sensor_type;location;lat;lon;timestamp;pressure;altitude;pressure_sealevel;temperature;humidity
43745;BME280;29359;53.048;8.732;2024-01-30T00:01:31;102822.47;;;3.12;77.92
43745;BME280;29359;53.048;8.732;2024-01-30T00:03:33;102815.50;;;3.08;78.18
43745;BME280;29359;53.048;8.732;2024-01-30T00:05:35;102819.78;;;3.08;78.14
43745;BME280;29359;53.048;8.732;2024-01-30T00:07:36;102820.56;;;3.05;78.42
43745;BME280;29359;53.048;8.732;2024-01-30T00:09:38;102829.16;;;3.04;78.29
43745;BME280;29359;53.048;8.732;2024-01-30T00:11:41;102816.16;;;3.01;78.25
43745;BME280;29359;53.048;8.732;2024-01-30T00:13:43;102816.97;;;2.99;78.40
43745;BME280;29359;53.048;8.732;2024-01-30T00:15:45;102823.81;;;2.97;78.39
43745;BME280;29359;53.048;8.732;2024-01-30T00:17:47;102820.34;;;2.96;78.52
43745;BME280;29359;53.048;8.732;2024-01-30T00:19:48;102811.69;;;2.94;78.49
43745;BME280;29359;53.048;8.732;2024-01-30T00:21:50;102819.44;;;2.94;78.42
43745;BME280;29359;53.048;8.732;2024-01-30T00:23:52;102819.41;;;2.92;78.53
43745;BME280;29359;53.048;8.732;2024-01-30T00:25:54;102820.25;;;2.91;78.63
43745;BME280;29359;53.048;8.732;2024-01-30T00:27:58;102818.44;;;2.89;78.45
43745;BME280;29359;53.048;8.732;2024-01-30T00:30:00;102809.75;;;2.85;78.53
43745;BME280;29359;53.048;8.732;2024-01-30T00:32:02;102807.94;;;2.83;78.40
43745;BME280;29359;53.048;8.732;2024-01-30T00:34:03;102812.19;;;2.79;78.57
43745;BME280;29359;53.048;8.732;2024-01-30T00:36:08;102813.88;;;2.79;78.48
43745;BME280;29359;53.048;8.732;2024-01-30T00:38:10;102815.56;;;2.77;78.49
43745;BME280;29359;53.048;8.732;2024-01-30T00:40:12;102821.56;;;2.76;78.47
43745;BME280;29359;53.048;8.732;2024-01-30T00:42:17;102818.13;;;2.75;78.77
43745;BME280;29359;53.048;8.732;2024-01-30T00:44:19;102812.06;;;2.75;78.77
43745;BME280;29359;53.048;8.732;2024-01-30T00:46:21;102814.59;;;2.73;78.74
43745;BME280;29359;53.048;8.732;2024-01-30T00:48:22;102814.56;;;2.72;78.67
43745;BME280;29359;53.048;8.732;2024-01-30T00:50:24;102817.94;;;2.69;78.75
43745;BME280;29359;53.048;8.732;2024-01-30T00:52:26;102810.16;;;2.67;78.56
43745;BME280;29359;53.048;8.732;2024-01-30T00:54:28;102804.09;;;2.67;78.49
43745;BME280;29359;53.048;8.732;2024-01-30T00:56:30;102801.50;;;2.65;78.74
43745;BME280;29359;53.048;8.732;2024-01-30T00:58:32;102799.75;;;2.64;78.75
43745;BME280;29359;53.048;8.732;2024-01-30T01:00:34;102796.25;;;2.62;78.57
43745;BME280;29359;53.048;8.732;2024-01-30T01:02:36;102797.09;;;2.61;78.70
43745;BME280;29359;53.048;8.732;2024-01-30T01:04:37;102795.34;;;2.60;78.36
43745;BME280;29359;53.048;8.732;2024-01-30T01:06:39;102793.66;;;2.61;78.68
43745;BME280;29359;53.048;8.732;2024-01-30T01:08:44;102800.53;;;2.60;78.73
43745;BME280;29359;53.048;8.732;2024-01-30T01:10:46;102796.16;;;2.59;78.76
43745;BME280;29359;53.048;8.732;2024-01-30T01:12:48;102796.16;;;2.59;78.56
43745;BME280;29359;53.048;8.732;2024-01-30T01:14:49;102791.00;;;2.59;78.54
43745;BME280;29359;53.048;8.732;2024-01-30T01:16:51;102790.13;;;2.59;78.52
43745;BME280;29359;53.048;8.732;2024-01-30T01:18:53;102793.56;;;2.58;78.74
43745;BME280;29359;53.048;8.732;2024-01-30T01:20:55;102786.66;;;2.57;78.62
43745;BME280;29359;53.048;8.732;2024-01-30T01:22:59;102788.31;;;2.55;78.61
43745;BME280;29359;53.048;8.732;2024-01-30T01:25:01;102787.44;;;2.54;78.66
43745;BME280;29359;53.048;8.732;2024-01-30T01:27:04;102793.47;;;2.55;78.55
43745;BME280;29359;53.048;8.732;2024-01-30T01:29:07;102783.13;;;2.53;78.55
43745;BME280;29359;53.048;8.732;2024-01-30T01:31:13;102784.88;;;2.54;78.49
43745;BME280;29359;53.048;8.732;2024-01-30T01:33:15;102780.56;;;2.55;78.50
43745;BME280;29359;53.048;8.732;2024-01-30T01:35:17;102783.16;;;2.55;78.67
43745;BME280;29359;53.048;8.732;2024-01-30T01:37:19;102776.25;;;2.54;78.61
43745;BME280;29359;53.048;8.732;2024-01-30T01:39:23;102779.69;;;2.53;78.78
43745;BME280;29359;53.048;8.732;2024-01-30T01:41:30;102775.38;;;2.53;78.38
43745;BME280;29359;53.048;8.732;2024-01-30T01:43:32;102768.50;;;2.52;78.35
43745;BME280;29359;53.048;8.732;2024-01-30T01:45:33;102768.44;;;2.51;78.37
43745;BME280;29359;53.048;8.732;2024-01-30T01:47:35;102764.13;;;2.50;78.55
43745;BME280;29359;53.048;8.732;2024-01-30T01:49:37;102765.78;;;2.47;78.34
43745;BME280;29359;53.048;8.732;2024-01-30T01:51:40;102770.94;;;2.47;78.55
43745;BME280;29359;53.048;8.732;2024-01-30T01:53:43;102776.06;;;2.46;78.33
43745;BME280;29359;53.048;8.732;2024-01-30T01:55:45;102774.31;;;2.45;78.28
43745;BME280;29359;53.048;8.732;2024-01-30T01:57:47;102768.28;;;2.44;78.32
43745;BME280;29359;53.048;8.732;2024-01-30T01:59:49;102771.69;;;2.43;78.20
43745;BME280;29359;53.048;8.732;2024-01-30T02:01:52;102769.06;;;2.42;78.21
43745;BME280;29359;53.048;8.732;2024-01-30T02:03:55;102766.50;;;2.42;78.24
43745;BME280;29359;53.048;8.732;2024-01-30T02:05:57;102762.13;;;2.39;78.44
43745;BME280;29359;53.048;8.732;2024-01-30T02:07:59;102755.19;;;2.37;78.34
43745;BME280;29359;53.048;8.732;2024-01-30T02:10:02;102756.84;;;2.35;78.31
43745;BME280;29359;53.048;8.732;2024-01-30T02:12:05;102759.41;;;2.33;78.35
43745;BME280;29359;53.048;8.732;2024-01-30T02:14:07;102754.19;;;2.32;78.45
43745;BME280;29359;53.048;8.732;2024-01-30T02:16:09;102757.59;;;2.31;78.25
43745;BME280;29359;53.048;8.732;2024-01-30T02:18:12;102755.84;;;2.30;78.29
43745;BME280;29359;53.048;8.732;2024-01-30T02:20:13;102754.06;;;2.27;78.26
43745;BME280;29359;53.048;8.732;2024-01-30T02:22:16;102754.03;;;2.26;78.33
43745;BME280;29359;53.048;8.732;2024-01-30T02:24:18;102750.53;;;2.24;78.21
43745;BME280;29359;53.048;8.732;2024-01-30T02:26:20;102751.38;;;2.22;78.35
43745;BME280;29359;53.048;8.732;2024-01-30T02:28:21;102741.81;;;2.18;78.53
43745;BME280;29359;53.048;8.732;2024-01-30T02:30:23;102742.66;;;2.17;78.57
43745;BME280;29359;53.048;8.732;2024-01-30T02:32:25;102736.63;;;2.17;78.41
43745;BME280;29359;53.048;8.732;2024-01-30T02:34:27;102728.88;;;2.17;78.61
43745;BME280;29359;53.048;8.732;2024-01-30T02:36:29;102729.66;;;2.14;78.42
43745;BME280;29359;53.048;8.732;2024-01-30T02:38:31;102728.81;;;2.15;78.59
43745;BME280;29359;53.048;8.732;2024-01-30T02:40:32;102719.34;;;2.14;78.34
43745;BME280;29359;53.048;8.732;2024-01-30T02:42:34;102717.66;;;2.15;78.64
43745;BME280;29359;53.048;8.732;2024-01-30T02:44:36;102715.06;;;2.15;78.36
43745;BME280;29359;53.048;8.732;2024-01-30T02:46:38;102717.63;;;2.13;78.43
43745;BME280;29359;53.048;8.732;2024-01-30T02:48:39;102717.63;;;2.13;78.42
43745;BME280;29359;53.048;8.732;2024-01-30T02:50:41;102722.78;;;2.13;78.43
43745;BME280;29359;53.048;8.732;2024-01-30T02:52:43;102724.50;;;2.14;78.21
43745;BME280;29359;53.048;8.732;2024-01-30T02:54:48;102708.19;;;2.14;78.23
43745;BME280;29359;53.048;8.732;2024-01-30T02:56:50;102714.16;;;2.13;78.28
43745;BME280;29359;53.048;8.732;2024-01-30T02:58:51;102708.19;;;2.14;78.17
43745;BME280;29359;53.048;8.732;2024-01-30T03:00:53;102709.81;;;2.12;78.45
43745;BME280;29359;53.048;8.732;2024-01-30T03:02:55;102704.66;;;2.12;78.26
43745;BME280;29359;53.048;8.732;2024-01-30T03:04:57;102708.94;;;2.11;78.39
43745;BME280;29359;53.048;8.732;2024-01-30T03:06:59;102709.81;;;2.12;78.29
43745;BME280;29359;53.048;8.732;2024-01-30T03:09:00;102709.88;;;2.13;78.28
43745;BME280;29359;53.048;8.732;2024-01-30T03:11:02;102700.41;;;2.12;78.21
43745;BME280;29359;53.048;8.732;2024-01-30T03:13:04;102702.09;;;2.12;78.16
43745;BME280;29359;53.048;8.732;2024-01-30T03:15:06;102701.22;;;2.11;78.33
43745;BME280;29359;53.048;8.732;2024-01-30T03:17:08;102698.63;;;2.10;78.26
43745;BME280;29359;53.048;8.732;2024-01-30T03:19:09;102700.31;;;2.09;78.25
43745;BME280;29359;53.048;8.732;2024-01-30T03:21:11;102692.53;;;2.08;78.01
43745;BME280;29359;53.048;8.732;2024-01-30T03:23:13;102692.50;;;2.06;78.20
43745;BME280;29359;53.048;8.732;2024-01-30T03:25:15;102693.34;;;2.05;78.37
43745;BME280;29359;53.048;8.732;2024-01-30T03:27:17;102694.16;;;2.04;78.14
43745;BME280;29359;53.048;8.732;2024-01-30T03:29:19;102687.31;;;2.05;78.03
43745;BME280;29359;53.048;8.732;2024-01-30T03:31:20;102690.75;;;2.05;77.90
43745;BME280;29359;53.048;8.732;2024-01-30T03:33:22;102691.63;;;2.06;78.08
43745;BME280;29359;53.048;8.732;2024-01-30T03:35:24;102696.78;;;2.06;77.97
43745;BME280;29359;53.048;8.732;2024-01-30T03:37:26;102696.72;;;2.04;77.87
43745;BME280;29359;53.048;8.732;2024-01-30T03:39:28;102686.47;;;2.06;78.01
43745;BME280;29359;53.048;8.732;2024-01-30T03:41:30;102681.25;;;2.04;77.93
43745;BME280;29359;53.048;8.732;2024-01-30T03:43:32;102687.25;;;2.03;78.09
43745;BME280;29359;53.048;8.732;2024-01-30T03:45:34;102684.69;;;2.03;78.13
43745;BME280;29359;53.048;8.732;2024-01-30T03:47:36;102683.81;;;2.03;77.98
43745;BME280;29359;53.048;8.732;2024-01-30T03:49:37;102674.34;;;2.02;78.03
43745;BME280;29359;53.048;8.732;2024-01-30T03:51:39;102673.47;;;2.01;77.83
43745;BME280;29359;53.048;8.732;2024-01-30T03:53:42;102676.91;;;2.02;77.94
43745;BME280;29359;53.048;8.732;2024-01-30T03:55:44;102673.41;;;2.00;77.97
43745;BME280;29359;53.048;8.732;2024-01-30T03:57:45;102675.97;;;1.98;78.13
43745;BME280;29359;53.048;8.732;2024-01-30T03:59:47;102678.50;;;1.96;78.20
43745;BME280;29359;53.048;8.732;2024-01-30T04:01:50;102669.06;;;1.97;78.19
43745;BME280;29359;53.048;8.732;2024-01-30T04:03:53;102674.25;;;1.99;78.09
43745;BME280;29359;53.048;8.732;2024-01-30T04:05:54;102679.50;;;2.02;78.16
43745;BME280;29359;53.048;8.732;2024-01-30T04:07:56;102673.53;;;2.04;78.17
43745;BME280;29359;53.048;8.732;2024-01-30T04:09:58;102679.63;;;2.06;78.18
43745;BME280;29359;53.048;8.732;2024-01-30T04:12:00;102679.69;;;2.09;78.24
43745;BME280;29359;53.048;8.732;2024-01-30T04:14:04;102664.25;;;2.11;77.91
43745;BME280;29359;53.048;8.732;2024-01-30T04:16:06;102672.06;;;2.12;77.99
43745;BME280;29359;53.048;8.732;2024-01-30T04:18:08;102678.94;;;2.13;77.68
43745;BME280;29359;53.048;8.732;2024-01-30T04:20:16;102670.38;;;2.14;77.77
43745;BME280;29359;53.048;8.732;2024-01-30T04:22:18;102676.47;;;2.16;77.67
43745;BME280;29359;53.048;8.732;2024-01-30T04:24:20;102672.16;;;2.17;77.63
43745;BME280;29359;53.048;8.732;2024-01-30T04:26:22;102668.72;;;2.16;77.69
43745;BME280;29359;53.048;8.732;2024-01-30T04:28:23;102668.72;;;2.16;77.80
43745;BME280;29359;53.048;8.732;2024-01-30T04:30:25;102666.97;;;2.15;77.84
43745;BME280;29359;53.048;8.732;2024-01-30T04:32:27;102665.22;;;2.14;77.67
43745;BME280;29359;53.048;8.732;2024-01-30T04:34:29;102669.53;;;2.15;77.73
43745;BME280;29359;53.048;8.732;2024-01-30T04:36:31;102665.25;;;2.16;78.11
43745;BME280;29359;53.048;8.732;2024-01-30T04:38:32;102663.56;;;2.16;78.13
43745;BME280;29359;53.048;8.732;2024-01-30T04:40:34;102662.72;;;2.17;78.15
43745;BME280;29359;53.048;8.732;2024-01-30T04:42:36;102656.75;;;2.20;78.19
43745;BME280;29359;53.048;8.732;2024-01-30T04:44:38;102660.28;;;2.24;78.11
43745;BME280;29359;53.048;8.732;2024-01-30T04:46:39;102656.91;;;2.25;77.75
43745;BME280;29359;53.048;8.732;2024-01-30T04:48:41;102653.47;;;2.24;77.86
43745;BME280;29359;53.048;8.732;2024-01-30T04:50:43;102657.78;;;2.25;77.93
43745;BME280;29359;53.048;8.732;2024-01-30T04:52:45;102650.91;;;2.26;77.84
43745;BME280;29359;53.048;8.732;2024-01-30T04:54:47;102648.31;;;2.26;77.91
43745;BME280;29359;53.048;8.732;2024-01-30T04:56:48;102648.31;;;2.26;78.15
43745;BME280;29359;53.048;8.732;2024-01-30T04:58:50;102653.50;;;2.27;78.01
43745;BME280;29359;53.048;8.732;2024-01-30T05:00:52;102648.34;;;2.27;78.17
43745;BME280;29359;53.048;8.732;2024-01-30T05:02:55;102651.78;;;2.28;78.02
43745;BME280;29359;53.048;8.732;2024-01-30T05:04:57;102645.78;;;2.27;78.31
43745;BME280;29359;53.048;8.732;2024-01-30T05:06:59;102645.75;;;2.26;78.08
43745;BME280;29359;53.048;8.732;2024-01-30T05:09:01;102644.00;;;2.25;78.03
43745;BME280;29359;53.048;8.732;2024-01-30T05:11:05;102637.09;;;2.24;78.15
43745;BME280;29359;53.048;8.732;2024-01-30T05:13:07;102635.34;;;2.22;78.33
43745;BME280;29359;53.048;8.732;2024-01-30T05:15:09;102631.03;;;2.21;78.38
43745;BME280;29359;53.048;8.732;2024-01-30T05:17:11;102635.34;;;2.22;78.15
43745;BME280;29359;53.048;8.732;2024-01-30T05:19:14;102635.34;;;2.22;78.44
43745;BME280;29359;53.048;8.732;2024-01-30T05:21:16;102628.47;;;2.21;78.21
43745;BME280;29359;53.048;8.732;2024-01-30T05:23:18;102630.19;;;2.22;78.28
43745;BME280;29359;53.048;8.732;2024-01-30T05:25:19;102627.63;;;2.22;78.07
43745;BME280;29359;53.048;8.732;2024-01-30T05:27:21;102630.16;;;2.21;78.41
43745;BME280;29359;53.048;8.732;2024-01-30T05:29:23;102630.97;;;2.20;78.45
43745;BME280;29359;53.048;8.732;2024-01-30T05:31:25;102628.38;;;2.18;78.38
43745;BME280;29359;53.048;8.732;2024-01-30T05:33:29;102627.47;;;2.16;78.35
43745;BME280;29359;53.048;8.732;2024-01-30T05:35:30;102629.13;;;2.14;78.21
43745;BME280;29359;53.048;8.732;2024-01-30T05:37:32;102620.53;;;2.14;78.48
43745;BME280;29359;53.048;8.732;2024-01-30T05:39:34;102621.31;;;2.11;78.55
43745;BME280;29359;53.048;8.732;2024-01-30T05:41:37;102624.72;;;2.10;78.50
43745;BME280;29359;53.048;8.732;2024-01-30T05:43:38;102623.81;;;2.08;78.42
43745;BME280;29359;53.048;8.732;2024-01-30T05:45:40;102628.09;;;2.08;78.67
43745;BME280;29359;53.048;8.732;2024-01-30T05:47:42;102627.22;;;2.07;78.93
43745;BME280;29359;53.048;8.732;2024-01-30T05:49:44;102622.06;;;2.07;78.98
43745;BME280;29359;53.048;8.732;2024-01-30T05:51:46;102622.06;;;2.07;78.98
43745;BME280;29359;53.048;8.732;2024-01-30T05:53:48;102623.69;;;2.04;78.98
43745;BME280;29359;53.048;8.732;2024-01-30T05:55:49;102627.13;;;2.04;79.29
43745;BME280;29359;53.048;8.732;2024-01-30T05:57:51;102628.84;;;2.04;79.39
43745;BME280;29359;53.048;8.732;2024-01-30T05:59:54;102631.50;;;2.05;79.43
43745;BME280;29359;53.048;8.732;2024-01-30T06:01:56;102637.53;;;2.07;79.48
43745;BME280;29359;53.048;8.732;2024-01-30T06:04:01;102629.81;;;2.07;79.30
43745;BME280;29359;53.048;8.732;2024-01-30T06:06:03;102630.66;;;2.08;79.32
43745;BME280;29359;53.048;8.732;2024-01-30T06:08:05;102634.13;;;2.08;79.49
43745;BME280;29359;53.048;8.732;2024-01-30T06:10:07;102640.19;;;2.10;79.64
43745;BME280;29359;53.048;8.732;2024-01-30T06:12:10;102641.03;;;2.09;79.54
43745;BME280;29359;53.048;8.732;2024-01-30T06:14:13;102635.91;;;2.11;79.37
43745;BME280;29359;53.048;8.732;2024-01-30T06:16:15;102635.97;;;2.12;79.56
43745;BME280;29359;53.048;8.732;2024-01-30T06:18:17;102637.72;;;2.13;79.45
43745;BME280;29359;53.048;8.732;2024-01-30T06:20:19;102628.28;;;2.15;79.58
43745;BME280;29359;53.048;8.732;2024-01-30T06:22:22;102627.50;;;2.18;79.35
43745;BME280;29359;53.048;8.732;2024-01-30T06:24:24;102623.22;;;2.18;79.34
43745;BME280;29359;53.048;8.732;2024-01-30T06:26:25;102627.59;;;2.21;79.40
43745;BME280;29359;53.048;8.732;2024-01-30T06:28:27;102630.19;;;2.22;79.41
43745;BME280;29359;53.048;8.732;2024-01-30T06:30:29;102630.19;;;2.22;79.71
43745;BME280;29359;53.048;8.732;2024-01-30T06:32:31;102633.63;;;2.23;79.60
43745;BME280;29359;53.048;8.732;2024-01-30T06:34:36;102632.84;;;2.26;79.75
43745;BME280;29359;53.048;8.732;2024-01-30T06:36:38;102630.28;;;2.26;79.73
43745;BME280;29359;53.048;8.732;2024-01-30T06:38:40;102623.41;;;2.26;79.68
43745;BME280;29359;53.048;8.732;2024-01-30T06:40:42;102615.66;;;2.25;79.97
43745;BME280;29359;53.048;8.732;2024-01-30T06:42:44;102613.88;;;2.24;79.99
43745;BME280;29359;53.048;8.732;2024-01-30T06:44:46;102621.69;;;2.27;80.24
43745;BME280;29359;53.048;8.732;2024-01-30T06:46:48;102625.13;;;2.26;80.21
43745;BME280;29359;53.048;8.732;2024-01-30T06:48:50;102622.56;;;2.27;80.64
43745;BME280;29359;53.048;8.732;2024-01-30T06:50:54;102618.28;;;2.28;80.54
43745;BME280;29359;53.048;8.732;2024-01-30T06:52:56;102620.03;;;2.29;80.78
43745;BME280;29359;53.048;8.732;2024-01-30T06:54:58;102623.50;;;2.29;80.78
43745;BME280;29359;53.048;8.732;2024-01-30T06:57:00;102620.03;;;2.29;80.87
43745;BME280;29359;53.048;8.732;2024-01-30T06:59:02;102614.03;;;2.30;80.70
43745;BME280;29359;53.048;8.732;2024-01-30T07:01:03;102610.59;;;2.29;80.78
43745;BME280;29359;53.048;8.732;2024-01-30T07:03:05;102614.03;;;2.30;80.79
43745;BME280;29359;53.048;8.732;2024-01-30T07:05:07;102611.47;;;2.30;80.73
43745;BME280;29359;53.048;8.732;2024-01-30T07:07:09;102617.47;;;2.29;81.04
43745;BME280;29359;53.048;8.732;2024-01-30T07:09:14;102613.13;;;2.28;81.32
43745;BME280;29359;53.048;8.732;2024-01-30T07:11:19;102612.31;;;2.29;81.39
43745;BME280;29359;53.048;8.732;2024-01-30T07:13:23;102615.75;;;2.29;81.35
43745;BME280;29359;53.048;8.732;2024-01-30T07:15:25;102610.59;;;2.29;81.52
43745;BME280;29359;53.048;8.732;2024-01-30T07:17:26;102616.66;;;2.31;81.72
43745;BME280;29359;53.048;8.732;2024-01-30T07:19:29;102618.41;;;2.32;81.56
43745;BME280;29359;53.048;8.732;2024-01-30T07:21:31;102616.69;;;2.33;81.67
43745;BME280;29359;53.048;8.732;2024-01-30T07:23:33;102617.56;;;2.33;81.39
43745;BME280;29359;53.048;8.732;2024-01-30T07:25:36;102617.56;;;2.33;81.67
43745;BME280;29359;53.048;8.732;2024-01-30T07:27:38;102614.16;;;2.34;81.85
43745;BME280;29359;53.048;8.732;2024-01-30T07:29:40;102604.69;;;2.35;81.67
43745;BME280;29359;53.048;8.732;2024-01-30T07:31:42;102613.38;;;2.37;81.89
43745;BME280;29359;53.048;8.732;2024-01-30T07:33:43;102599.63;;;2.38;81.86
43745;BME280;29359;53.048;8.732;2024-01-30T07:35:45;102597.97;;;2.40;81.76
43745;BME280;29359;53.048;8.732;2024-01-30T07:37:47;102593.69;;;2.40;81.88
43745;BME280;29359;53.048;8.732;2024-01-30T07:39:49;102593.69;;;2.42;81.89
43745;BME280;29359;53.048;8.732;2024-01-30T07:41:51;102583.47;;;2.45;81.96
43745;BME280;29359;53.048;8.732;2024-01-30T07:43:53;102583.50;;;2.46;82.05
43745;BME280;29359;53.048;8.732;2024-01-30T07:45:55;102586.13;;;2.48;82.01
43745;BME280;29359;53.048;8.732;2024-01-30T07:47:57;102585.34;;;2.52;82.23
43745;BME280;29359;53.048;8.732;2024-01-30T07:49:59;102583.66;;;2.54;82.32
43745;BME280;29359;53.048;8.732;2024-01-30T07:52:01;102588.06;;;2.58;82.27
43745;BME280;29359;53.048;8.732;2024-01-30T07:54:03;102584.69;;;2.61;82.32
43745;BME280;29359;53.048;8.732;2024-01-30T07:56:05;102587.38;;;2.65;82.30
43745;BME280;29359;53.048;8.732;2024-01-30T07:58:07;102592.59;;;2.68;82.43
43745;BME280;29359;53.048;8.732;2024-01-30T08:00:09;102587.53;;;2.73;82.66
43745;BME280;29359;53.048;8.732;2024-01-30T08:02:14;102589.34;;;2.77;82.77
43745;BME280;29359;53.048;8.732;2024-01-30T08:04:16;102594.59;;;2.80;82.49
43745;BME280;29359;53.048;8.732;2024-01-30T08:06:19;102600.69;;;2.84;83.02
43745;BME280;29359;53.048;8.732;2024-01-30T08:08:21;102604.22;;;2.89;82.99
43745;BME280;29359;53.048;8.732;2024-01-30T08:10:23;102606.00;;;2.91;82.76
43745;BME280;29359;53.048;8.732;2024-01-30T08:12:25;102596.63;;;2.95;82.93
43745;BME280;29359;53.048;8.732;2024-01-30T08:14:27;102605.28;;;2.99;82.92
43745;BME280;29359;53.048;8.732;2024-01-30T08:16:29;102597.66;;;3.03;83.28
43745;BME280;29359;53.048;8.732;2024-01-30T08:18:31;102600.34;;;3.08;83.03
43745;BME280;29359;53.048;8.732;2024-01-30T08:20:33;102599.56;;;3.13;83.38
43745;BME280;29359;53.048;8.732;2024-01-30T08:22:35;102591.97;;;3.19;83.37
43745;BME280;29359;53.048;8.732;2024-01-30T08:24:37;102593.78;;;3.25;83.31
43745;BME280;29359;53.048;8.732;2024-01-30T08:26:38;102593.88;;;3.30;83.24
43745;BME280;29359;53.048;8.732;2024-01-30T08:28:40;102595.75;;;3.37;83.32
43745;BME280;29359;53.048;8.732;2024-01-30T08:30:42;102595.03;;;3.44;83.20
43745;BME280;29359;53.048;8.732;2024-01-30T08:32:44;102589.94;;;3.49;83.23
43745;BME280;29359;53.048;8.732;2024-01-30T08:34:46;102590.09;;;3.55;83.24
43745;BME280;29359;53.048;8.732;2024-01-30T08:36:48;102591.03;;;3.60;83.46
43745;BME280;29359;53.048;8.732;2024-01-30T08:38:50;102592.84;;;3.65;83.21
43745;BME280;29359;53.048;8.732;2024-01-30T08:40:55;102597.28;;;3.71;83.66
43745;BME280;29359;53.048;8.732;2024-01-30T08:42:57;102584.44;;;3.77;83.67
43745;BME280;29359;53.048;8.732;2024-01-30T08:45:00;102591.47;;;3.84;83.56
43745;BME280;29359;53.048;8.732;2024-01-30T08:47:02;102587.28;;;3.89;83.81
43745;BME280;29359;53.048;8.732;2024-01-30T08:49:04;102587.34;;;3.96;83.52
43745;BME280;29359;53.048;8.732;2024-01-30T08:51:06;102590.00;;;4.00;83.69
43745;BME280;29359;53.048;8.732;2024-01-30T08:53:10;102579.75;;;4.05;83.72
43745;BME280;29359;53.048;8.732;2024-01-30T08:55:11;102587.63;;;4.11;84.00
43745;BME280;29359;53.048;8.732;2024-01-30T08:57:13;102580.84;;;4.17;83.67
43745;BME280;29359;53.048;8.732;2024-01-30T08:59:15;102580.91;;;4.24;83.88
43745;BME280;29359;53.048;8.732;2024-01-30T09:01:17;102579.31;;;4.29;84.00
43745;BME280;29359;53.048;8.732;2024-01-30T09:03:19;102574.19;;;4.35;84.00
43745;BME280;29359;53.048;8.732;2024-01-30T09:05:21;102580.34;;;4.41;83.91
43745;BME280;29359;53.048;8.732;2024-01-30T09:07:22;102577.00;;;4.49;84.05
43745;BME280;29359;53.048;8.732;2024-01-30T09:09:24;102576.22;;;4.54;84.12
43745;BME280;29359;53.048;8.732;2024-01-30T09:11:26;102586.69;;;4.62;84.33
43745;BME280;29359;53.048;8.732;2024-01-30T09:13:28;102587.66;;;4.68;84.40
43745;BME280;29359;53.048;8.732;2024-01-30T09:15:30;102599.84;;;4.79;84.63
43745;BME280;29359;53.048;8.732;2024-01-30T09:17:31;102597.41;;;4.88;84.46
43745;BME280;29359;53.048;8.732;2024-01-30T09:19:34;102595.81;;;4.98;84.57
43745;BME280;29359;53.048;8.732;2024-01-30T09:21:37;102595.03;;;5.06;84.57
43745;BME280;29359;53.048;8.732;2024-01-30T09:23:38;102589.13;;;5.15;84.49
43745;BME280;29359;53.048;8.732;2024-01-30T09:25:40;102590.97;;;5.24;84.60
43745;BME280;29359;53.048;8.732;2024-01-30T09:27:42;102591.88;;;5.29;84.71
43745;BME280;29359;53.048;8.732;2024-01-30T09:29:44;102591.97;;;5.36;84.49
43745;BME280;29359;53.048;8.732;2024-01-30T09:31:46;102586.88;;;5.44;84.46
43745;BME280;29359;53.048;8.732;2024-01-30T09:33:48;102584.41;;;5.55;84.68
43745;BME280;29359;53.048;8.732;2024-01-30T09:35:51;102579.31;;;5.64;84.95
43745;BME280;29359;53.048;8.732;2024-01-30T09:37:52;102583.72;;;5.74;84.72
43745;BME280;29359;53.048;8.732;2024-01-30T09:39:54;102585.53;;;5.83;84.27
43745;BME280;29359;53.048;8.732;2024-01-30T09:42:12;102576.16;;;5.96;84.31
43745;BME280;29359;53.048;8.732;2024-01-30T09:44:16;102570.19;;;6.03;84.14
43745;BME280;29359;53.048;8.732;2024-01-30T09:46:21;102571.97;;;6.13;84.12
43745;BME280;29359;53.048;8.732;2024-01-30T09:48:25;102585.91;;;6.23;83.78
43745;BME280;29359;53.048;8.732;2024-01-30T09:50:27;102583.41;;;6.33;83.60
43745;BME280;29359;53.048;8.732;2024-01-30T09:52:29;102590.38;;;6.42;83.29
43745;BME280;29359;53.048;8.732;2024-01-30T09:54:31;102586.97;;;6.51;82.98
43745;BME280;29359;53.048;8.732;2024-01-30T09:56:37;102587.88;;;6.59;82.42
43745;BME280;29359;53.048;8.732;2024-01-30T09:58:39;102577.59;;;6.68;82.39
43745;BME280;29359;53.048;8.732;2024-01-30T10:00:44;102593.19;;;6.73;82.10
43745;BME280;29359;53.048;8.732;2024-01-30T10:02:46;102589.75;;;6.78;82.09
43745;BME280;29359;53.048;8.732;2024-01-30T10:04:49;102583.72;;;6.84;81.74
43745;BME280;29359;53.048;8.732;2024-01-30T10:06:51;102591.53;;;6.92;81.24
43745;BME280;29359;53.048;8.732;2024-01-30T10:08:53;102594.16;;;6.98;81.21
43745;BME280;29359;53.048;8.732;2024-01-30T10:10:55;102587.25;;;7.01;80.97
43745;BME280;29359;53.048;8.732;2024-01-30T10:12:56;102591.63;;;7.08;80.80
43745;BME280;29359;53.048;8.732;2024-01-30T10:14:58;102590.81;;;7.16;80.42
43745;BME280;29359;53.048;8.732;2024-01-30T10:17:01;102587.34;;;7.20;80.23
43745;BME280;29359;53.048;8.732;2024-01-30T10:19:07;102587.34;;;7.23;79.99
43745;BME280;29359;53.048;8.732;2024-01-30T10:21:09;102590.84;;;7.28;79.87
43745;BME280;29359;53.048;8.732;2024-01-30T10:23:11;102594.28;;;7.30;79.71
43745;BME280;29359;53.048;8.732;2024-01-30T10:25:13;102591.72;;;7.34;79.69
43745;BME280;29359;53.048;8.732;2024-01-30T10:27:15;102592.59;;;7.38;79.44
43745;BME280;29359;53.048;8.732;2024-01-30T10:29:17;102594.34;;;7.44;79.15
43745;BME280;29359;53.048;8.732;2024-01-30T10:31:19;102584.84;;;7.47;79.23
43745;BME280;29359;53.048;8.732;2024-01-30T10:33:21;102573.56;;;7.51;79.29
43745;BME280;29359;53.048;8.732;2024-01-30T10:35:23;102576.19;;;7.56;79.03
43745;BME280;29359;53.048;8.732;2024-01-30T10:37:29;102569.25;;;7.59;79.01
43745;BME280;29359;53.048;8.732;2024-01-30T10:39:38;102576.19;;;7.65;78.91
43745;BME280;29359;53.048;8.732;2024-01-30T10:41:44;102569.25;;;7.70;78.94
43745;BME280;29359;53.048;8.732;2024-01-30T10:43:50;102576.22;;;7.77;78.65
43745;BME280;29359;53.048;8.732;2024-01-30T10:45:57;102584.88;;;7.85;78.53
43745;BME280;29359;53.048;8.732;2024-01-30T10:48:02;102585.75;;;7.94;78.53